Wetterstation Vordersexau
Wetterdaten: Woche 11.07.16 - 17.07.16 (KW28)
Datum Zeit Temp. A. Feuchte A. Luftdruck Regen Wind Richtung Taupunkt Windchill Windben
11.07.2016 11:00 29,8 C 48 % 983,6 hPa 0,0 l/m 22,7 km/h W-SW 17,6 C 28,8 C 12,6 km/h
11.07.2016 12:00 29,9 C 48 % 1010,7 hPa 0,0 l/m 7,8 km/h SW 17,7 C 29,8 C 4,3 km/h
11.07.2016 13:00 28,6 C 54 % 1011,0 hPa 0,0 l/m 8,4 km/h W-SW 18,4 C 28,3 C 4,7 km/h
11.07.2016 14:00 29,8 C 52 % 1011,6 hPa 0,0 l/m 7,1 km/h S 18,9 C 29,7 C 4,0 km/h
11.07.2016 15:00 28,2 C 55 % 1011,0 hPa 0,0 l/m 26,6 km/h W-SW 18,3 C 26,4 C 14,8 km/h
11.07.2016 16:00 26,6 C 66 % 1010,9 hPa 0,0 l/m 7,1 km/h W 19,7 C 26,5 C 4,0 km/h
11.07.2016 17:00 26,4 C 63 % 1010,8 hPa 0,0 l/m 0,0 km/h W-NW 18,8 C 26,4 C 0,0 km/h
11.07.2016 18:00 24,9 C 67 % 1010,4 hPa 0,0 l/m 1,9 km/h N 18,3 C 24,9 C 1,1 km/h
11.07.2016 19:00 22,9 C 72 % 1011,2 hPa 0,0 l/m 3,2 km/h N 17,6 C 22,9 C 1,8 km/h
11.07.2016 20:00 21,9 C 75 % 1011,6 hPa 0,0 l/m 0,0 km/h N 17,3 C 21,9 C 0,0 km/h
11.07.2016 21:00 21,6 C 77 % 1011,7 hPa 0,0 l/m 0,0 km/h O-SO 17,4 C 21,6 C 0,0 km/h
11.07.2016 22:00 18,9 C 82 % 1012,3 hPa 5,2 l/m 0,0 km/h O-SO 15,8 C 18,9 C 0,0 km/h
11.07.2016 23:00 18,9 C 83 % 1012,6 hPa 0,0 l/m 0,0 km/h O-SO 15,9 C 18,9 C 0,0 km/h
12.07.2016 00:00 18,9 C 84 % 1012,1 hPa 0,0 l/m 0,0 km/h O-SO 16,1 C 18,9 C 0,0 km/h
12.07.2016 01:00 18,6 C 83 % 1012,5 hPa 0,0 l/m 0,0 km/h O-SO 15,7 C 18,6 C 0,0 km/h
12.07.2016 02:00 18,5 C 83 % 1011,9 hPa 0,0 l/m 0,0 km/h O-SO 15,6 C 18,5 C 0,0 km/h
12.07.2016 03:00 18,4 C 83 % 1012,0 hPa 0,0 l/m 0,0 km/h O-SO 15,5 C 18,4 C 0,0 km/h
12.07.2016 04:00 18,2 C 83 % 1012,0 hPa 0,5 l/m 0,0 km/h O-SO 15,3 C 18,2 C 0,0 km/h
12.07.2016 05:00 18,1 C 83 % 1012,3 hPa 0,0 l/m 0,0 km/h SO 15,2 C 18,1 C 0,0 km/h
12.07.2016 06:00 17,6 C 82 % 1012,0 hPa 0,5 l/m 0,0 km/h O-SO 14,5 C 17,6 C 0,0 km/h
12.07.2016 07:00 17,9 C 82 % 1012,1 hPa 0,0 l/m 0,0 km/h SO 14,8 C 17,9 C 0,0 km/h
12.07.2016 08:00 18,3 C 82 % 1012,4 hPa 0,0 l/m 0,0 km/h N-NO 15,2 C 18,3 C 0,0 km/h
12.07.2016 09:00 18,5 C 83 % 1012,6 hPa 0,0 l/m 0,0 km/h NO 15,6 C 18,5 C 0,0 km/h
12.07.2016 10:00 20,1 C 82 % 1012,5 hPa 0,0 l/m 0,0 km/h NO 16,9 C 20,1 C 0,0 km/h
12.07.2016 11:00 20,1 C 82 % 1012,7 hPa 0,0 l/m 0,0 km/h SO 16,9 C 20,1 C 0,0 km/h
12.07.2016 12:00 20,9 C 80 % 1012,5 hPa 0,0 l/m 0,0 km/h SO 17,3 C 20,9 C 0,0 km/h
12.07.2016 13:00 19,9 C 81 % 1012,4 hPa 0,0 l/m 0,0 km/h S 16,5 C 19,9 C 0,0 km/h
12.07.2016 14:00 23,8 C 68 % 1011,7 hPa 0,0 l/m 0,0 km/h S-SO 17,5 C 23,8 C 0,0 km/h
12.07.2016 15:00 22,6 C 69 % 1011,5 hPa 0,0 l/m 1,9 km/h SO 16,6 C 22,6 C 1,1 km/h
12.07.2016 16:00 22,3 C 72 % 1011,3 hPa 0,0 l/m 0,0 km/h SO 17,0 C 22,3 C 0,0 km/h
12.07.2016 17:00 25,6 C 63 % 1011,0 hPa 0,0 l/m 0,0 km/h SO 18,0 C 25,6 C 0,0 km/h
12.07.2016 18:00 20,5 C 70 % 1010,6 hPa 0,0 l/m 3,9 km/h S 14,8 C 20,5 C 2,2 km/h
12.07.2016 19:00 18,0 C 79 % 1011,1 hPa 0,0 l/m 4,5 km/h SO 14,3 C 18,0 C 2,5 km/h
12.07.2016 20:00 17,2 C 83 % 1010,9 hPa 0,5 l/m 0,0 km/h O-SO 14,3 C 17,2 C 0,0 km/h
12.07.2016 21:00 16,7 C 84 % 1011,9 hPa 0,5 l/m 0,0 km/h SO 14,0 C 16,7 C 0,0 km/h
12.07.2016 22:00 15,8 C 84 % 1012,1 hPa 0,0 l/m 0,0 km/h NO 13,1 C 15,8 C 0,0 km/h
12.07.2016 23:00 15,5 C 84 % 1012,5 hPa 0,0 l/m 0,0 km/h NO 12,8 C 15,5 C 0,0 km/h
13.07.2016 00:00 14,5 C 84 % 1012,4 hPa 0,0 l/m 0,0 km/h NO 11,8 C 14,5 C 0,0 km/h
13.07.2016 01:00 13,4 C 84 % 1012,3 hPa 0,0 l/m 0,0 km/h O-NO 10,8 C 13,4 C 0,0 km/h
13.07.2016 02:00 12,8 C 84 % 1012,4 hPa 0,0 l/m 0,0 km/h W-SW 10,2 C 12,8 C 0,0 km/h
13.07.2016 03:00 14,2 C 83 % 1012,3 hPa 0,0 l/m 0,6 km/h NW 11,4 C 14,2 C 0,4 km/h
13.07.2016 04:00 14,3 C 84 % 1012,3 hPa 0,0 l/m 0,0 km/h W-SW 11,6 C 14,3 C 0,0 km/h
13.07.2016 05:00 14,1 C 85 % 1012,3 hPa 0,0 l/m 0,0 km/h S-SO 11,6 C 14,1 C 0,0 km/h
13.07.2016 06:00 14,9 C 84 % 1012,3 hPa 0,0 l/m 0,0 km/h W-SW 12,2 C 14,9 C 0,0 km/h
13.07.2016 07:00 15,4 C 83 % 1012,5 hPa 0,0 l/m 20,1 km/h W 12,5 C 10,2 C 11,2 km/h
13.07.2016 08:00 16,5 C 80 % 1012,5 hPa 0,0 l/m 11,0 km/h SW 13,0 C 14,4 C 6,1 km/h
13.07.2016 09:00 15,2 C 84 % 1012,8 hPa 0,0 l/m 0,0 km/h S-SW 12,5 C 15,2 C 0,0 km/h
13.07.2016 10:00 17,2 C 84 % 1013,0 hPa 0,0 l/m 0,0 km/h W-SW 14,5 C 17,2 C 0,0 km/h
13.07.2016 11:00 21,1 C 73 % 1012,5 hPa 0,0 l/m 10,4 km/h W 16,1 C 19,7 C 5,8 km/h
13.07.2016 12:00 14,9 C 80 % 1013,5 hPa 0,0 l/m 0,0 km/h SO 11,5 C 14,9 C 0,0 km/h
13.07.2016 13:00 16,4 C 81 % 1013,5 hPa 7,3 l/m 0,0 km/h SW 13,1 C 16,4 C 0,0 km/h
13.07.2016 14:00 18,9 C 80 % 1013,7 hPa 0,0 l/m 11,0 km/h W-SW 15,4 C 17,1 C 6,1 km/h
13.07.2016 15:00 19,8 C 69 % 1013,6 hPa 0,0 l/m 20,1 km/h SO 13,9 C 15,9 C 11,2 km/h
13.07.2016 16:00 11,9 C 84 % 1014,7 hPa 3,6 l/m 0,0 km/h SW 9,3 C 11,9 C 0,0 km/h
13.07.2016 17:00 17,6 C 74 % 1014,4 hPa 0,0 l/m 0,0 km/h S-SW 12,9 C 17,6 C 0,0 km/h
13.07.2016 18:00 23,9 C 54 % 1014,6 hPa 0,0 l/m 4,5 km/h W 14,0 C 23,9 C 2,5 km/h
13.07.2016 19:00 16,8 C 68 % 1014,9 hPa 0,0 l/m 5,2 km/h S-SO 10,9 C 16,8 C 2,9 km/h
13.07.2016 20:00 12,8 C 78 % 1015,5 hPa 1,0 l/m 0,0 km/h S 9,1 C 12,8 C 0,0 km/h
13.07.2016 21:00 11,5 C 81 % 1016,4 hPa 0,0 l/m 0,0 km/h S 8,4 C 11,5 C 0,0 km/h
13.07.2016 22:00 11,2 C 83 % 1016,6 hPa 0,0 l/m 0,0 km/h O-NO 8,4 C 11,2 C 0,0 km/h
13.07.2016 23:00 11,4 C 84 % 1016,7 hPa 0,0 l/m 0,0 km/h S-SW 8,8 C 11,4 C 0,0 km/h
14.07.2016 00:00 11,5 C 84 % 1016,6 hPa 0,5 l/m 0,0 km/h S-SW 8,9 C 11,5 C 0,0 km/h
14.07.2016 01:00 11,6 C 83 % 1016,3 hPa 1,0 l/m 0,6 km/h W-SW 8,8 C 11,6 C 0,4 km/h
14.07.2016 02:00 11,6 C 82 % 1016,3 hPa 2,1 l/m 0,0 km/h SW 8,6 C 11,6 C 0,0 km/h
14.07.2016 03:00 11,8 C 80 % 1016,3 hPa 0,0 l/m 2,6 km/h W 8,5 C 11,8 C 1,4 km/h
14.07.2016 04:00 11,9 C 80 % 1016,3 hPa 0,0 l/m 0,0 km/h W-SW 8,6 C 11,9 C 0,0 km/h
14.07.2016 05:00 11,8 C 80 % 1016,4 hPa 0,0 l/m 0,0 km/h W-SW 8,5 C 11,8 C 0,0 km/h
14.07.2016 06:00 12,3 C 81 % 1016,7 hPa 0,0 l/m 0,0 km/h W-SW 9,1 C 12,3 C 0,0 km/h
14.07.2016 07:00 12,6 C 81 % 1017,1 hPa 0,0 l/m 0,0 km/h S-SW 9,4 C 12,6 C 0,0 km/h
14.07.2016 08:00 13,6 C 81 % 1017,4 hPa 0,0 l/m 0,0 km/h W 10,4 C 13,6 C 0,0 km/h
14.07.2016 09:00 15,4 C 84 % 1017,6 hPa 0,5 l/m 0,0 km/h W 12,7 C 15,4 C 0,0 km/h
14.07.2016 10:00 15,0 C 79 % 1017,5 hPa 0,0 l/m 1,9 km/h SO 11,4 C 15,0 C 1,1 km/h
14.07.2016 11:00 18,3 C 75 % 1017,8 hPa 0,0 l/m 0,0 km/h W-SW 13,8 C 18,3 C 0,0 km/h
14.07.2016 12:00 20,9 C 55 % 1017,8 hPa 0,0 l/m 0,0 km/h W 11,5 C 20,9 C 0,0 km/h
14.07.2016 13:00 19,8 C 55 % 1017,8 hPa 0,0 l/m 1,3 km/h N 10,5 C 19,8 C 0,7 km/h
14.07.2016 14:00 21,6 C 53 % 1018,0 hPa 0,0 l/m 2,6 km/h W-NW 11,6 C 21,6 C 1,4 km/h
14.07.2016 15:00 22,2 C 52 % 1017,8 hPa 0,0 l/m 24,0 km/h W 11,9 C 18,5 C 13,3 km/h
14.07.2016 16:00 18,8 C 59 % 1017,9 hPa 0,0 l/m 13,0 km/h SO 10,6 C 16,3 C 7,2 km/h
14.07.2016 17:00 14,4 C 74 % 1018,9 hPa 0,0 l/m 0,0 km/h N 9,8 C 14,4 C 0,0 km/h
14.07.2016 18:00 16,8 C 74 % 1019,1 hPa 0,5 l/m 0,0 km/h S-SO 12,1 C 16,8 C 0,0 km/h
14.07.2016 19:00 15,8 C 74 % 1019,5 hPa 0,0 l/m 0,0 km/h S 11,2 C 15,8 C 0,0 km/h
14.07.2016 20:00 13,1 C 78 % 1019,9 hPa 0,0 l/m 0,0 km/h S-SO 9,4 C 13,1 C 0,0 km/h
14.07.2016 21:00 11,1 C 82 % 1020,8 hPa 0,0 l/m 0,0 km/h NO 8,1 C 11,1 C 0,0 km/h
14.07.2016 22:00 10,4 C 84 % 1021,5 hPa 0,0 l/m 0,0 km/h O-SO 7,8 C 10,4 C 0,0 km/h
14.07.2016 23:00 11,1 C 84 % 1021,9 hPa 0,0 l/m 0,0 km/h SO 8,5 C 11,1 C 0,0 km/h
15.07.2016 00:00 10,9 C 85 % 1022,1 hPa 0,0 l/m 0,0 km/h SO 8,5 C 10,9 C 0,0 km/h
15.07.2016 01:00 9,7 C 85 % 1022,2 hPa 0,0 l/m 0,0 km/h O-NO 7,3 C 9,7 C 0,0 km/h
15.07.2016 02:00 10,1 C 85 % 1022,3 hPa 0,0 l/m 0,0 km/h O-NO 7,7 C 10,1 C 0,0 km/h
15.07.2016 03:00 10,6 C 84 % 1022,3 hPa 0,0 l/m 0,0 km/h SO 8,0 C 10,6 C 0,0 km/h
15.07.2016 04:00 9,8 C 85 % 1022,5 hPa 0,0 l/m 0,0 km/h O-SO 7,4 C 9,8 C 0,0 km/h
15.07.2016 05:00 10,1 C 84 % 1022,6 hPa 0,0 l/m 0,0 km/h O-SO 7,5 C 10,1 C 0,0 km/h
15.07.2016 06:00 11,0 C 83 % 1023,1 hPa 0,0 l/m 0,0 km/h NO 8,2 C 11,0 C 0,0 km/h
15.07.2016 07:00 14,5 C 81 % 1023,6 hPa 0,0 l/m 0,0 km/h N 11,3 C 14,5 C 0,0 km/h
15.07.2016 08:00 15,6 C 77 % 1024,0 hPa 0,0 l/m 0,0 km/h N 11,6 C 15,6 C 0,0 km/h
15.07.2016 09:00 18,9 C 71 % 1024,4 hPa 0,0 l/m 1,3 km/h N-NO 13,5 C 18,9 C 0,7 km/h
15.07.2016 10:00 20,3 C 62 % 1024,3 hPa 0,0 l/m 0,0 km/h O-NO 12,8 C 20,3 C 0,0 km/h
15.07.2016 11:00 19,2 C 62 % 1024,5 hPa 0,0 l/m 0,0 km/h N-NO 11,7 C 19,2 C 0,0 km/h
15.07.2016 12:00 21,4 C 52 % 1024,2 hPa 0,0 l/m 0,0 km/h W-NW 11,1 C 21,4 C 0,0 km/h
15.07.2016 13:00 22,1 C 44 % 1024,2 hPa 0,0 l/m 8,4 km/h N 9,3 C 21,4 C 4,7 km/h
15.07.2016 14:00 20,9 C 50 % 1024,5 hPa 0,0 l/m 0,0 km/h S-SW 10,1 C 20,9 C 0,0 km/h
15.07.2016 15:00 22,3 C 48 % 1024,4 hPa 0,0 l/m 1,3 km/h NO 10,8 C 22,3 C 0,7 km/h
15.07.2016 16:00 21,6 C 50 % 1024,1 hPa 0,0 l/m 2,6 km/h O-SO 10,7 C 21,6 C 1,4 km/h
15.07.2016 17:00 28,4 C 36 % 1023,9 hPa 0,0 l/m 0,0 km/h N 11,9 C 28,4 C 0,0 km/h
15.07.2016 18:00 27,2 C 39 % 1023,8 hPa 0,0 l/m 0,0 km/h W 12,0 C 27,2 C 0,0 km/h
15.07.2016 19:00 20,3 C 47 % 1023,8 hPa 0,0 l/m 0,0 km/h SO 8,6 C 20,3 C 0,0 km/h
15.07.2016 20:00 16,1 C 62 % 1023,9 hPa 0,0 l/m 0,0 km/h SO 8,8 C 16,1 C 0,0 km/h
15.07.2016 21:00 12,3 C 71 % 1024,3 hPa 0,0 l/m 0,0 km/h SO 7,2 C 12,3 C 0,0 km/h
15.07.2016 22:00 10,6 C 76 % 1024,5 hPa 0,0 l/m 0,0 km/h SO 6,5 C 10,6 C 0,0 km/h
15.07.2016 23:00 10,1 C 79 % 1024,6 hPa 0,0 l/m 0,0 km/h SO 6,6 C 10,1 C 0,0 km/h
16.07.2016 00:00 9,9 C 82 % 1024,6 hPa 0,0 l/m 0,0 km/h O-NO 7,0 C 9,9 C 0,0 km/h
16.07.2016 01:00 9,9 C 83 % 1024,2 hPa 0,0 l/m 0,0 km/h O-SO 7,2 C 9,9 C 0,0 km/h
16.07.2016 02:00 9,3 C 83 % 1024,3 hPa 0,0 l/m 0,0 km/h SO 6,6 C 9,3 C 0,0 km/h
16.07.2016 03:00 8,6 C 84 % 1024,3 hPa 0,0 l/m 0,0 km/h SO 6,1 C 8,6 C 0,0 km/h
16.07.2016 04:00 8,6 C 85 % 1024,5 hPa 0,0 l/m 0,0 km/h SO 6,2 C 8,6 C 0,0 km/h
16.07.2016 05:00 7,9 C 85 % 1024,4 hPa 0,0 l/m 0,0 km/h O-SO 5,5 C 7,9 C 0,0 km/h
16.07.2016 06:00 8,5 C 85 % 1024,5 hPa 0,0 l/m 0,0 km/h SO 6,1 C 8,5 C 0,0 km/h
16.07.2016 07:00 15,6 C 84 % 1024,6 hPa 0,0 l/m 0,0 km/h S 12,9 C 15,6 C 0,0 km/h
16.07.2016 08:00 23,4 C 54 % 1024,7 hPa 0,0 l/m 1,9 km/h W 13,6 C 23,4 C 1,1 km/h
16.07.2016 09:00 24,4 C 47 % 1024,6 hPa 0,0 l/m 0,0 km/h W-NW 12,3 C 24,4 C 0,0 km/h
16.07.2016 10:00 23,6 C 49 % 1024,4 hPa 0,0 l/m 0,0 km/h W-NW 12,2 C 23,6 C 0,0 km/h
16.07.2016 11:00 25,0 C 46 % 1024,3 hPa 0,0 l/m 7,8 km/h N-NO 12,6 C 24,6 C 4,3 km/h
16.07.2016 12:00 25,1 C 45 % 1023,8 hPa 0,0 l/m 3,2 km/h NW 12,3 C 25,1 C 1,8 km/h
16.07.2016 13:00 26,6 C 43 % 1023,0 hPa 0,0 l/m 0,0 km/h W 13,0 C 26,6 C 0,0 km/h
16.07.2016 14:00 27,1 C 40 % 1022,5 hPa 0,0 l/m 0,0 km/h W-NW 12,3 C 27,1 C 0,0 km/h
16.07.2016 15:00 26,5 C 41 % 1022,2 hPa 0,0 l/m 13,6 km/h W-NW 12,2 C 25,3 C 7,6 km/h
16.07.2016 16:00 28,6 C 38 % 1021,8 hPa 0,0 l/m 0,0 km/h W-NW 12,9 C 28,6 C 0,0 km/h
16.07.2016 17:00 28,6 C 35 % 1021,5 hPa 0,0 l/m 0,0 km/h NW 11,6 C 28,6 C 0,0 km/h
16.07.2016 18:00 24,1 C 42 % 1021,3 hPa 0,0 l/m 0,0 km/h N 10,4 C 24,1 C 0,0 km/h
16.07.2016 19:00 22,1 C 51 % 1021,3 hPa 0,0 l/m 0,0 km/h O-SO 11,5 C 22,1 C 0,0 km/h
16.07.2016 20:00 18,5 C 61 % 1021,3 hPa 0,0 l/m 0,0 km/h O-SO 10,8 C 18,5 C 0,0 km/h
16.07.2016 21:00 15,5 C 68 % 1021,8 hPa 0,0 l/m 0,0 km/h O-SO 9,6 C 15,5 C 0,0 km/h
16.07.2016 22:00 14,1 C 73 % 1021,8 hPa 0,0 l/m 0,0 km/h O-SO 9,3 C 14,1 C 0,0 km/h
16.07.2016 23:00 13,2 C 77 % 1021,9 hPa 0,0 l/m 0,0 km/h O-SO 9,3 C 13,2 C 0,0 km/h
17.07.2016 00:00 13,3 C 79 % 1021,7 hPa 0,0 l/m 0,0 km/h O-SO 9,7 C 13,3 C 0,0 km/h
17.07.2016 01:00 12,9 C 80 % 1021,5 hPa 0,0 l/m 0,0 km/h O 9,5 C 12,9 C 0,0 km/h
17.07.2016 02:00 12,1 C 81 % 1021,4 hPa 0,0 l/m 0,0 km/h O-NO 8,9 C 12,1 C 0,0 km/h
17.07.2016 03:00 11,4 C 82 % 1021,1 hPa 0,0 l/m 0,0 km/h O-NO 8,4 C 11,4 C 0,0 km/h
17.07.2016 04:00 11,3 C 83 % 1021,0 hPa 0,0 l/m 0,0 km/h O-NO 8,5 C 11,3 C 0,0 km/h
17.07.2016 05:00 10,5 C 84 % 1021,0 hPa 0,0 l/m 0,0 km/h O-SO 7,9 C 10,5 C 0,0 km/h
17.07.2016 06:00 11,6 C 84 % 1021,2 hPa 0,0 l/m 0,0 km/h SO 9,0 C 11,6 C 0,0 km/h
17.07.2016 07:00 19,3 C 81 % 1021,3 hPa 0,0 l/m 0,0 km/h N-NO 16,0 C 19,3 C 0,0 km/h
17.07.2016 08:00 26,9 C 50 % 1021,3 hPa 0,0 l/m 0,0 km/h W 15,6 C 26,9 C 0,0 km/h
17.07.2016 09:00 27,5 C 47 % 1021,2 hPa 0,0 l/m 0,0 km/h W 15,2 C 27,5 C 0,0 km/h
17.07.2016 10:00 26,8 C 49 % 1020,8 hPa 0,0 l/m 2,6 km/h SO 15,2 C 26,8 C 1,4 km/h
17.07.2016 11:00 27,4 C 47 % 1020,5 hPa 0,0 l/m 0,0 km/h W-NW 15,1 C 27,4 C 0,0 km/h
17.07.2016 12:00 27,9 C 48 % 1020,1 hPa 0,0 l/m 7,8 km/h N-NW 15,9 C 27,7 C 4,3 km/h
17.07.2016 13:00 29,1 C 47 % 1019,5 hPa 0,0 l/m 0,0 km/h W 16,6 C 29,1 C 0,0 km/h
17.07.2016 14:00 30,3 C 45 % 1019,0 hPa 0,0 l/m 3,2 km/h NW 17,0 C 30,3 C 1,8 km/h
17.07.2016 15:00 30,8 C 44 % 1018,7 hPa 0,0 l/m 0,0 km/h N-NW 17,1 C 30,8 C 0,0 km/h
17.07.2016 16:00 33,3 C 40 % 1018,3 hPa 0,0 l/m 0,0 km/h NO 17,8 C 33,3 C 0,0 km/h
17.07.2016 17:00 39,3 C 29 % 1018,1 hPa 0,0 l/m 0,0 km/h N-NO 17,9 C 39,3 C 0,0 km/h
17.07.2016 18:00 35,8 C 31 % 1017,8 hPa 0,0 l/m 1,9 km/h NW 16,0 C 35,8 C 1,1 km/h
17.07.2016 19:00 27,5 C 45 % 1018,0 hPa 0,0 l/m 1,9 km/h N 14,5 C 27,5 C 1,1 km/h
17.07.2016 20:00 24,2 C 56 % 1018,3 hPa 0,0 l/m 0,0 km/h N-NO 14,9 C 24,2 C 0,0 km/h
17.07.2016 21:00 19,9 C 68 % 1018,8 hPa 0,0 l/m 0,0 km/h N-NO 13,8 C 19,9 C 0,0 km/h
17.07.2016 22:00 18,5 C 72 % 1019,1 hPa 0,0 l/m 0,0 km/h SO 13,4 C 18,5 C 0,0 km/h
17.07.2016 23:00 17,5 C 76 % 1019,2 hPa 0,0 l/m 0,0 km/h SO 13,2 C 17,5 C 0,0 km/h
Min-Datum _ 16.07.16 17.07.16 11.07.16 - 11.07.16 - 16.07.16 16.07.16 11.07.16
_ Min-Zeit 05:56 17:56 11:56 - 17:56 - 05:56 05:56 17:56
Minimum _ 7,9 C 29 % 983,6 hPa - 0,0 km/h - 5,5 C 7,9 C 0,0 km/h
Max-Datum _ 17.07.16 13.07.16 16.07.16 13.07.16 11.07.16 - 11.07.16 17.07.16 11.07.16
_ Max-Zeit 17:56 05:56 08:56 13:56 15:56 - 16:56 17:56 15:56
Maximum _ 39,3 C 85 % 1024,7 hPa 7,3 l/m 26,6 km/h
W-SW
- 19,7 C 39,3 C 14,8 km/h
W-SW
Durchschnitt _ 18,5 C 70 % 1017,7 hPa #23,8 l/m 1,8 km/h SO 12,3 C 18,3 C 1,0 km/h
www.sexauwetter.de